Terminal Aerodrome Forecast
Issued by NWS Duluth, MN

Home | Current Version | Previous Version | Text Only | Print | Product List | Glossary On
Versions: 1 2 3 4 5 6 7 8 9 10 11 12 13 14 15 16 17 18 19 20 21 22 23 24 25 26 27 28 29 30 31 32
369
FTUS43 KDLH 300147 AAB
TAFDLH
TAF AMD
KDLH 300147Z 3002/3024 09007KT P6SM FEW005
     FM300400 09007KT 5SM BR SCT005
      TEMPO 3004/3006 BKN005
     FM300600 08007KT 3SM BR OVC005
      TEMPO 3006/3009 3/4SM BR BKN005
     FM300900 08006KT 1SM BR OVC004
      TEMPO 3009/3013 3/4SM BR
     FM301500 07005KT 5SM BR BKN006
     FM301700 08011KT P6SM SCT010 SCT035=

USA.gov is the U.S. government's official web portal to all federal, state and local government web resources and services.